sensor_id;sensor_type;location;lat;lon;timestamp;pressure;altitude;pressure_sealevel;temperature;humidity
33075;BME280;19433;51.292;6.868;2023-04-07T00:00:11;65403.31;;;-146.38;100.00
33075;BME280;19433;51.292;6.868;2023-04-07T00:02:36;65403.31;;;-146.38;100.00
33075;BME280;19433;51.292;6.868;2023-04-07T00:05:02;65403.31;;;-146.38;100.00
33075;BME280;19433;51.292;6.868;2023-04-07T00:07:27;65403.31;;;-146.38;100.00
33075;BME280;19433;51.292;6.868;2023-04-07T00:09:52;65403.31;;;-146.38;100.00
33075;BME280;19433;51.292;6.868;2023-04-07T00:12:17;65403.31;;;-146.38;100.00
33075;BME280;19433;51.292;6.868;2023-04-07T00:14:43;65403.31;;;-146.38;100.00
33075;BME280;19433;51.292;6.868;2023-04-07T00:17:08;65403.31;;;-146.38;100.00
33075;BME280;19433;51.292;6.868;2023-04-07T00:19:33;65403.31;;;-146.38;100.00
33075;BME280;19433;51.292;6.868;2023-04-07T00:21:59;65403.31;;;-146.38;100.00
33075;BME280;19433;51.292;6.868;2023-04-07T00:24:25;65403.31;;;-146.38;100.00
33075;BME280;19433;51.292;6.868;2023-04-07T00:26:51;65403.31;;;-146.38;100.00
33075;BME280;19433;51.292;6.868;2023-04-07T00:29:16;65403.31;;;-146.38;100.00
33075;BME280;19433;51.292;6.868;2023-04-07T00:31:42;65403.31;;;-146.38;100.00
33075;BME280;19433;51.292;6.868;2023-04-07T00:34:07;65403.31;;;-146.38;100.00
33075;BME280;19433;51.292;6.868;2023-04-07T00:36:32;65403.31;;;-146.38;100.00
33075;BME280;19433;51.292;6.868;2023-04-07T00:38:58;65403.31;;;-146.38;100.00
33075;BME280;19433;51.292;6.868;2023-04-07T00:41:23;65403.31;;;-146.38;100.00
33075;BME280;19433;51.292;6.868;2023-04-07T00:43:50;65403.31;;;-146.38;100.00
33075;BME280;19433;51.292;6.868;2023-04-07T00:46:16;65403.31;;;-146.38;100.00
33075;BME280;19433;51.292;6.868;2023-04-07T00:48:42;65403.31;;;-146.38;100.00
33075;BME280;19433;51.292;6.868;2023-04-07T00:51:07;65403.31;;;-146.38;100.00
33075;BME280;19433;51.292;6.868;2023-04-07T00:53:33;65403.31;;;-146.38;100.00
33075;BME280;19433;51.292;6.868;2023-04-07T00:55:58;65403.31;;;-146.38;100.00
33075;BME280;19433;51.292;6.868;2023-04-07T00:58:23;65403.31;;;-146.38;100.00
33075;BME280;19433;51.292;6.868;2023-04-07T01:00:56;65403.31;;;-146.38;100.00
33075;BME280;19433;51.292;6.868;2023-04-07T01:03:33;65403.31;;;-146.38;100.00
33075;BME280;19433;51.292;6.868;2023-04-07T01:06:01;65403.31;;;-146.38;100.00
33075;BME280;19433;51.292;6.868;2023-04-07T01:13:28;65403.31;;;-146.38;100.00
33075;BME280;19433;51.292;6.868;2023-04-07T01:15:57;65403.31;;;-146.38;100.00
33075;BME280;19433;51.292;6.868;2023-04-07T01:18:30;65403.31;;;-146.38;100.00
33075;BME280;19433;51.292;6.868;2023-04-07T01:21:10;65403.31;;;-146.38;100.00
33075;BME280;19433;51.292;6.868;2023-04-07T01:26:25;65403.31;;;-146.38;100.00
33075;BME280;19433;51.292;6.868;2023-04-07T01:31:45;65403.31;;;-146.38;100.00
33075;BME280;19433;51.292;6.868;2023-04-07T01:34:13;65403.31;;;-146.38;100.00
33075;BME280;19433;51.292;6.868;2023-04-07T01:36:40;65403.31;;;-146.38;100.00
33075;BME280;19433;51.292;6.868;2023-04-07T01:39:06;65403.31;;;-146.38;100.00
33075;BME280;19433;51.292;6.868;2023-04-07T01:41:33;65403.31;;;-146.38;100.00
33075;BME280;19433;51.292;6.868;2023-04-07T01:44:00;65403.31;;;-146.38;100.00
33075;BME280;19433;51.292;6.868;2023-04-07T01:46:27;65403.31;;;-146.38;100.00
33075;BME280;19433;51.292;6.868;2023-04-07T01:48:54;65403.31;;;-146.38;100.00
33075;BME280;19433;51.292;6.868;2023-04-07T01:51:21;65403.31;;;-146.38;100.00
33075;BME280;19433;51.292;6.868;2023-04-07T01:53:48;65403.31;;;-146.38;100.00
33075;BME280;19433;51.292;6.868;2023-04-07T01:56:13;65403.31;;;-146.38;100.00
33075;BME280;19433;51.292;6.868;2023-04-07T01:58:39;65403.31;;;-146.38;100.00
33075;BME280;19433;51.292;6.868;2023-04-07T02:01:04;65403.31;;;-146.38;100.00
33075;BME280;19433;51.292;6.868;2023-04-07T02:06:05;65403.31;;;-146.38;100.00
33075;BME280;19433;51.292;6.868;2023-04-07T02:08:32;65403.31;;;-146.38;100.00
33075;BME280;19433;51.292;6.868;2023-04-07T02:10:58;65403.31;;;-146.38;100.00
33075;BME280;19433;51.292;6.868;2023-04-07T02:13:26;65403.31;;;-146.38;100.00
33075;BME280;19433;51.292;6.868;2023-04-07T02:15:53;65403.31;;;-146.38;100.00
33075;BME280;19433;51.292;6.868;2023-04-07T02:18:20;65403.31;;;-146.38;100.00
33075;BME280;19433;51.292;6.868;2023-04-07T02:20:46;65403.31;;;-146.38;100.00
33075;BME280;19433;51.292;6.868;2023-04-07T02:23:13;65403.31;;;-146.38;100.00
33075;BME280;19433;51.292;6.868;2023-04-07T02:25:38;65403.31;;;-146.38;100.00
33075;BME280;19433;51.292;6.868;2023-04-07T02:28:04;65403.31;;;-146.38;100.00
33075;BME280;19433;51.292;6.868;2023-04-07T02:30:33;65403.31;;;-146.38;100.00
33075;BME280;19433;51.292;6.868;2023-04-07T02:33:20;100145.75;;;7.45;100.00
33075;BME280;19433;51.292;6.868;2023-04-07T02:35:45;100150.47;;;7.51;100.00
33075;BME280;19433;51.292;6.868;2023-04-07T02:38:11;100148.47;;;7.60;100.00
33075;BME280;19433;51.292;6.868;2023-04-07T02:40:36;100149.53;;;7.59;100.00
33075;BME280;19433;51.292;6.868;2023-04-07T02:43:01;100154.25;;;7.50;100.00
33075;BME280;19433;51.292;6.868;2023-04-07T02:45:27;100165.00;;;7.45;100.00
33075;BME280;19433;51.292;6.868;2023-04-07T02:47:52;100149.25;;;7.54;100.00
33075;BME280;19433;51.292;6.868;2023-04-07T02:50:18;100150.66;;;7.50;100.00
33075;BME280;19433;51.292;6.868;2023-04-07T02:52:44;100169.53;;;7.53;100.00
33075;BME280;19433;51.292;6.868;2023-04-07T02:55:09;100161.66;;;7.50;100.00
33075;BME280;19433;51.292;6.868;2023-04-07T02:57:35;100159.53;;;7.66;100.00
33075;BME280;19433;51.292;6.868;2023-04-07T03:00:00;100158.69;;;7.66;100.00
33075;BME280;19433;51.292;6.868;2023-04-07T03:02:26;100161.00;;;7.62;100.00
33075;BME280;19433;51.292;6.868;2023-04-07T03:04:51;100172.06;;;7.69;100.00
33075;BME280;19433;51.292;6.868;2023-04-07T03:07:20;100166.28;;;7.64;100.00
33075;BME280;19433;51.292;6.868;2023-04-07T03:09:45;100164.78;;;7.61;100.00
33075;BME280;19433;51.292;6.868;2023-04-07T03:12:10;100172.16;;;7.75;100.00
33075;BME280;19433;51.292;6.868;2023-04-07T03:14:36;100167.53;;;7.61;100.00
33075;BME280;19433;51.292;6.868;2023-04-07T03:17:02;100163.16;;;7.67;100.00
33075;BME280;19433;51.292;6.868;2023-04-07T03:19:27;100166.69;;;7.61;100.00
33075;BME280;19433;51.292;6.868;2023-04-07T03:21:53;100165.69;;;7.68;100.00
33075;BME280;19433;51.292;6.868;2023-04-07T03:24:18;100174.13;;;7.67;100.00
33075;BME280;19433;51.292;6.868;2023-04-07T03:26:44;100174.13;;;7.67;100.00
33075;BME280;19433;51.292;6.868;2023-04-07T03:29:09;100164.59;;;7.63;100.00
33075;BME280;19433;51.292;6.868;2023-04-07T03:31:34;100165.25;;;7.50;100.00
33075;BME280;19433;51.292;6.868;2023-04-07T03:34:01;100169.69;;;7.66;100.00
33075;BME280;19433;51.292;6.868;2023-04-07T03:36:27;100175.19;;;7.66;100.00
33075;BME280;19433;51.292;6.868;2023-04-07T03:38:52;100173.28;;;7.66;100.00
33075;BME280;19433;51.292;6.868;2023-04-07T03:41:17;100175.59;;;7.63;100.00
33075;BME280;19433;51.292;6.868;2023-04-07T03:43:43;100172.00;;;7.62;100.00
33075;BME280;19433;51.292;6.868;2023-04-07T03:46:08;100178.53;;;7.61;100.00
33075;BME280;19433;51.292;6.868;2023-04-07T03:48:33;100175.03;;;7.53;100.00
33075;BME280;19433;51.292;6.868;2023-04-07T03:50:59;100172.56;;;7.58;100.00
33075;BME280;19433;51.292;6.868;2023-04-07T03:53:24;100168.28;;;7.55;100.00
33075;BME280;19433;51.292;6.868;2023-04-07T03:55:49;100177.41;;;7.56;100.00
33075;BME280;19433;51.292;6.868;2023-04-07T03:58:15;100181.56;;;7.52;100.00
33075;BME280;19433;51.292;6.868;2023-04-07T04:00:41;100181.56;;;7.52;100.00
33075;BME280;19433;51.292;6.868;2023-04-07T04:03:06;100182.34;;;7.46;100.00
33075;BME280;19433;51.292;6.868;2023-04-07T04:05:32;100182.03;;;7.55;100.00
33075;BME280;19433;51.292;6.868;2023-04-07T04:07:57;100179.47;;;7.54;100.00
33075;BME280;19433;51.292;6.868;2023-04-07T04:10:22;100186.22;;;7.51;100.00
33075;BME280;19433;51.292;6.868;2023-04-07T04:12:48;100188.38;;;7.56;100.00
33075;BME280;19433;51.292;6.868;2023-04-07T04:15:14;100189.25;;;7.41;100.00
33075;BME280;19433;51.292;6.868;2023-04-07T04:17:40;100189.63;;;7.53;100.00
33075;BME280;19433;51.292;6.868;2023-04-07T04:20:06;100193.41;;;7.52;100.00
33075;BME280;19433;51.292;6.868;2023-04-07T04:22:31;100204.41;;;7.52;100.00
33075;BME280;19433;51.292;6.868;2023-04-07T04:24:57;100204.41;;;7.52;100.00
33075;BME280;19433;51.292;6.868;2023-04-07T04:27:23;100206.78;;;7.55;100.00
33075;BME280;19433;51.292;6.868;2023-04-07T04:29:48;100203.38;;;7.53;100.00
33075;BME280;19433;51.292;6.868;2023-04-07T04:32:13;100206.78;;;7.55;100.00
33075;BME280;19433;51.292;6.868;2023-04-07T04:34:39;100206.88;;;7.62;100.00
33075;BME280;19433;51.292;6.868;2023-04-07T04:37:06;100203.38;;;7.53;100.00
33075;BME280;19433;51.292;6.868;2023-04-07T04:39:31;100203.09;;;7.48;100.00
33075;BME280;19433;51.292;6.868;2023-04-07T04:41:56;100206.13;;;7.53;100.00
33075;BME280;19433;51.292;6.868;2023-04-07T04:44:22;100215.59;;;7.51;100.00
33075;BME280;19433;51.292;6.868;2023-04-07T04:46:47;100209.72;;;7.54;100.00
33075;BME280;19433;51.292;6.868;2023-04-07T04:49:12;100216.25;;;7.53;100.00
33075;BME280;19433;51.292;6.868;2023-04-07T04:51:39;100217.59;;;7.57;100.00
33075;BME280;19433;51.292;6.868;2023-04-07T04:54:05;100221.38;;;7.56;100.00
33075;BME280;19433;51.292;6.868;2023-04-07T04:56:30;100220.72;;;7.54;100.00
33075;BME280;19433;51.292;6.868;2023-04-07T04:58:56;100219.84;;;7.53;100.00
33075;BME280;19433;51.292;6.868;2023-04-07T05:01:21;100225.94;;;7.63;100.00
33075;BME280;19433;51.292;6.868;2023-04-07T05:03:46;100229.25;;;7.59;100.00
33075;BME280;19433;51.292;6.868;2023-04-07T05:06:12;100221.88;;;7.45;100.00
33075;BME280;19433;51.292;6.868;2023-04-07T05:08:37;100225.34;;;7.53;100.00
33075;BME280;19433;51.292;6.868;2023-04-07T05:11:02;100230.78;;;7.47;100.00
33075;BME280;19433;51.292;6.868;2023-04-07T05:13:28;100227.56;;;7.43;100.00
33075;BME280;19433;51.292;6.868;2023-04-07T05:15:55;100228.97;;;7.54;100.00
33075;BME280;19433;51.292;6.868;2023-04-07T05:18:20;100233.06;;;7.43;100.00
33075;BME280;19433;51.292;6.868;2023-04-07T05:20:47;100234.56;;;7.46;100.00
33075;BME280;19433;51.292;6.868;2023-04-07T05:23:13;100240.50;;;7.49;100.00
33075;BME280;19433;51.292;6.868;2023-04-07T05:25:38;100242.69;;;7.54;100.00
33075;BME280;19433;51.292;6.868;2023-04-07T05:28:03;100233.06;;;7.43;100.00
33075;BME280;19433;51.292;6.868;2023-04-07T05:30:29;100240.81;;;7.54;100.00
33075;BME280;19433;51.292;6.868;2023-04-07T05:32:54;100237.78;;;7.49;100.00
33075;BME280;19433;51.292;6.868;2023-04-07T05:35:19;100238.53;;;7.43;100.00
33075;BME280;19433;51.292;6.868;2023-04-07T05:37:45;100241.97;;;7.45;100.00
33075;BME280;19433;51.292;6.868;2023-04-07T05:40:10;100243.56;;;7.39;100.00
33075;BME280;19433;51.292;6.868;2023-04-07T05:42:36;100241.78;;;7.47;100.00
33075;BME280;19433;51.292;6.868;2023-04-07T05:45:02;100247.34;;;7.53;100.00
33075;BME280;19433;51.292;6.868;2023-04-07T05:47:27;100247.63;;;7.58;100.00
33075;BME280;19433;51.292;6.868;2023-04-07T05:49:53;100246.69;;;7.51;100.00
33075;BME280;19433;51.292;6.868;2023-04-07T05:52:18;100250.75;;;7.55;100.00
33075;BME280;19433;51.292;6.868;2023-04-07T05:54:43;100258.16;;;7.55;100.00
33075;BME280;19433;51.292;6.868;2023-04-07T05:57:09;100252.38;;;7.50;100.00
33075;BME280;19433;51.292;6.868;2023-04-07T05:59:34;100259.97;;;7.48;100.00
33075;BME280;19433;51.292;6.868;2023-04-07T06:02:01;100264.69;;;7.54;100.00
33075;BME280;19433;51.292;6.868;2023-04-07T06:04:26;100266.41;;;7.55;100.00
33075;BME280;19433;51.292;6.868;2023-04-07T06:06:51;100273.13;;;7.52;100.00
33075;BME280;19433;51.292;6.868;2023-04-07T06:09:20;100272.38;;;7.58;100.00
33075;BME280;19433;51.292;6.868;2023-04-07T06:11:45;100273.41;;;7.57;100.00
33075;BME280;19433;51.292;6.868;2023-04-07T06:14:11;100272.56;;;7.57;100.00
33075;BME280;19433;51.292;6.868;2023-04-07T06:16:36;100281.38;;;7.52;100.00
33075;BME280;19433;51.292;6.868;2023-04-07T06:19:01;100283.56;;;7.42;100.00
33075;BME280;19433;51.292;6.868;2023-04-07T06:21:27;100278.16;;;7.49;100.00
33075;BME280;19433;51.292;6.868;2023-04-07T06:23:53;100286.50;;;7.40;100.00
33075;BME280;19433;51.292;6.868;2023-04-07T06:26:18;100293.41;;;7.36;100.00
33075;BME280;19433;51.292;6.868;2023-04-07T06:28:43;100285.75;;;7.47;100.00
33075;BME280;19433;51.292;6.868;2023-04-07T06:31:08;100291.63;;;7.44;100.00
33075;BME280;19433;51.292;6.868;2023-04-07T06:33:34;100291.13;;;7.40;100.00
33075;BME280;19433;51.292;6.868;2023-04-07T06:35:59;100291.63;;;7.44;100.00
33075;BME280;19433;51.292;6.868;2023-04-07T06:38:24;100289.44;;;7.39;100.00
33075;BME280;19433;51.292;6.868;2023-04-07T06:40:50;100293.16;;;7.46;100.00
33075;BME280;19433;51.292;6.868;2023-04-07T06:43:16;100289.13;;;7.34;100.00
33075;BME280;19433;51.292;6.868;2023-04-07T06:45:41;100297.38;;;7.49;100.00
33075;BME280;19433;51.292;6.868;2023-04-07T06:48:06;100300.53;;;7.46;100.00
33075;BME280;19433;51.292;6.868;2023-04-07T06:50:31;100306.59;;;7.56;100.00
33075;BME280;19433;51.292;6.868;2023-04-07T06:52:57;100300.16;;;7.63;100.00
33075;BME280;19433;51.292;6.868;2023-04-07T06:55:22;100303.97;;;7.62;100.00
33075;BME280;19433;51.292;6.868;2023-04-07T06:57:47;100310.50;;;7.76;100.00
33075;BME280;19433;51.292;6.868;2023-04-07T07:00:15;100314.28;;;7.75;100.00
33075;BME280;19433;51.292;6.868;2023-04-07T07:02:40;100325.09;;;7.76;100.00
33075;BME280;19433;51.292;6.868;2023-04-07T07:05:05;100316.19;;;7.74;100.00
33075;BME280;19433;51.292;6.868;2023-04-07T07:07:32;100321.56;;;7.83;100.00
33075;BME280;19433;51.292;6.868;2023-04-07T07:09:57;100312.28;;;7.84;100.00
33075;BME280;19433;51.292;6.868;2023-04-07T07:12:22;100317.03;;;7.90;100.00
33075;BME280;19433;51.292;6.868;2023-04-07T07:14:48;100321.19;;;7.86;100.00
33075;BME280;19433;51.292;6.868;2023-04-07T07:17:13;100324.63;;;7.88;100.00
33075;BME280;19433;51.292;6.868;2023-04-07T07:19:38;100325.84;;;7.85;100.00
33075;BME280;19433;51.292;6.868;2023-04-07T07:22:03;100322.53;;;7.90;100.00
33075;BME280;19433;51.292;6.868;2023-04-07T07:24:30;100331.25;;;7.93;100.00
33075;BME280;19433;51.292;6.868;2023-04-07T07:26:58;100335.13;;;7.99;100.00
33075;BME280;19433;51.292;6.868;2023-04-07T07:29:23;100333.03;;;8.01;100.00
33075;BME280;19433;51.292;6.868;2023-04-07T07:31:48;100334.75;;;8.02;100.00
33075;BME280;19433;51.292;6.868;2023-04-07T07:34:13;100341.59;;;8.06;100.00
33075;BME280;19433;51.292;6.868;2023-04-07T07:36:39;100342.59;;;8.20;100.00
33075;BME280;19433;51.292;6.868;2023-04-07T07:39:04;100345.22;;;8.28;100.00
33075;BME280;19433;51.292;6.868;2023-04-07T07:41:30;100347.78;;;8.29;100.00
33075;BME280;19433;51.292;6.868;2023-04-07T07:43:55;100354.53;;;8.27;100.00
33075;BME280;19433;51.292;6.868;2023-04-07T07:46:20;100349.03;;;8.27;100.00
33075;BME280;19433;51.292;6.868;2023-04-07T07:48:48;100347.13;;;8.27;100.00
33075;BME280;19433;51.292;6.868;2023-04-07T07:51:13;100361.38;;;8.31;100.00
33075;BME280;19433;51.292;6.868;2023-04-07T07:53:38;100355.13;;;8.22;100.00
33075;BME280;19433;51.292;6.868;2023-04-07T07:56:04;100360.34;;;8.32;100.00
33075;BME280;19433;51.292;6.868;2023-04-07T07:58:29;100367.06;;;8.29;100.00
33075;BME280;19433;51.292;6.868;2023-04-07T08:00:54;100358.81;;;8.44;100.00
33075;BME280;19433;51.292;6.868;2023-04-07T08:03:20;100367.72;;;8.31;100.00
33075;BME280;19433;51.292;6.868;2023-04-07T08:05:47;100363.28;;;8.16;100.00
33075;BME280;19433;51.292;6.868;2023-04-07T08:08:13;100369.56;;;8.09;100.00
33075;BME280;19433;51.292;6.868;2023-04-07T08:10:38;100378.84;;;8.23;100.00
33075;BME280;19433;51.292;6.868;2023-04-07T08:13:03;100372.31;;;8.24;100.00
33075;BME280;19433;51.292;6.868;2023-04-07T08:15:29;100380.47;;;8.32;100.00
33075;BME280;19433;51.292;6.868;2023-04-07T08:17:54;100370.78;;;8.22;100.00
33075;BME280;19433;51.292;6.868;2023-04-07T08:20:20;100375.63;;;8.20;100.00
33075;BME280;19433;51.292;6.868;2023-04-07T08:22:45;100381.88;;;8.13;100.00
33075;BME280;19433;51.292;6.868;2023-04-07T08:25:10;100387.88;;;8.17;100.00
33075;BME280;19433;51.292;6.868;2023-04-07T08:27:36;100388.72;;;8.18;100.00
33075;BME280;19433;51.292;6.868;2023-04-07T08:30:03;100387.38;;;8.13;100.00
33075;BME280;19433;51.292;6.868;2023-04-07T08:32:41;100393.66;;;8.22;100.00
33075;BME280;19433;51.292;6.868;2023-04-07T08:35:07;100401.44;;;8.19;100.00
33075;BME280;19433;51.292;6.868;2023-04-07T08:37:32;100394.03;;;8.04;100.00
33075;BME280;19433;51.292;6.868;2023-04-07T08:39:58;100407.31;;;8.16;100.00
33075;BME280;19433;51.292;6.868;2023-04-07T08:42:27;100397.63;;;8.20;100.00
33075;BME280;19433;51.292;6.868;2023-04-07T08:45:04;100403.72;;;8.15;100.00
33075;BME280;19433;51.292;6.868;2023-04-07T08:47:31;100405.13;;;8.11;100.00
33075;BME280;19433;51.292;6.868;2023-04-07T08:50:02;100404.56;;;8.01;100.00
33075;BME280;19433;51.292;6.868;2023-04-07T08:55:11;100412.63;;;8.17;100.00
33075;BME280;19433;51.292;6.868;2023-04-07T08:57:37;100412.81;;;8.16;100.00
33075;BME280;19433;51.292;6.868;2023-04-07T09:00:03;100415.19;;;8.19;100.00
33075;BME280;19433;51.292;6.868;2023-04-07T09:02:33;100416.97;;;8.11;100.00
33075;BME280;19433;51.292;6.868;2023-04-07T09:05:00;100416.53;;;8.23;100.00
33075;BME280;19433;51.292;6.868;2023-04-07T09:07:25;100418.13;;;8.17;100.00
33075;BME280;19433;51.292;6.868;2023-04-07T09:09:51;100418.44;;;8.37;100.00
33075;BME280;19433;51.292;6.868;2023-04-07T09:12:16;100423.06;;;8.51;100.00
33075;BME280;19433;51.292;6.868;2023-04-07T09:14:41;100420.38;;;8.58;100.00
33075;BME280;19433;51.292;6.868;2023-04-07T09:17:07;100428.28;;;8.46;100.00
33075;BME280;19433;51.292;6.868;2023-04-07T09:19:32;100426.41;;;8.46;100.00
33075;BME280;19433;51.292;6.868;2023-04-07T09:21:57;100434.94;;;8.52;100.00
33075;BME280;19433;51.292;6.868;2023-04-07T09:24:25;100434.16;;;8.58;100.00
33075;BME280;19433;51.292;6.868;2023-04-07T09:27:13;100432.75;;;8.47;100.00
33075;BME280;19433;51.292;6.868;2023-04-07T09:29:40;100436.06;;;8.42;100.00
33075;BME280;19433;51.292;6.868;2023-04-07T09:32:07;100434.56;;;8.55;100.00
33075;BME280;19433;51.292;6.868;2023-04-07T09:34:34;100435.78;;;8.52;100.00
33075;BME280;19433;51.292;6.868;2023-04-07T09:37:00;100437.31;;;8.55;100.00
33075;BME280;19433;51.292;6.868;2023-04-07T09:39:26;100435.31;;;8.49;100.00
33075;BME280;19433;51.292;6.868;2023-04-07T09:41:52;100437.41;;;8.46;100.00
33075;BME280;19433;51.292;6.868;2023-04-07T09:44:21;100433.97;;;8.59;100.00
33075;BME280;19433;51.292;6.868;2023-04-07T09:46:57;100442.13;;;8.67;100.00
33075;BME280;19433;51.292;6.868;2023-04-07T09:49:24;100436.03;;;8.72;100.00
33075;BME280;19433;51.292;6.868;2023-04-07T09:52:01;100442.31;;;8.66;100.00
33075;BME280;19433;51.292;6.868;2023-04-07T09:54:35;100439.66;;;8.58;100.00
33075;BME280;19433;51.292;6.868;2023-04-07T09:57:01;100442.16;;;8.53;100.00
33075;BME280;19433;51.292;6.868;2023-04-07T09:59:29;100448.53;;;8.53;100.00
33075;BME280;19433;51.292;6.868;2023-04-07T10:01:55;100453.06;;;8.46;100.00
33075;BME280;19433;51.292;6.868;2023-04-07T10:04:21;100448.72;;;8.52;100.00
33075;BME280;19433;51.292;6.868;2023-04-07T10:06:47;100450.00;;;8.56;100.00
33075;BME280;19433;51.292;6.868;2023-04-07T10:09:12;100450.31;;;8.46;100.00
33075;BME280;19433;51.292;6.868;2023-04-07T10:11:39;100451.75;;;8.42;100.00
33075;BME280;19433;51.292;6.868;2023-04-07T10:14:06;100448.34;;;8.40;100.00
33075;BME280;19433;51.292;6.868;2023-04-07T10:16:33;100448.97;;;8.57;100.00
33075;BME280;19433;51.292;6.868;2023-04-07T10:18:59;100446.97;;;8.65;100.00
33075;BME280;19433;51.292;6.868;2023-04-07T10:21:24;100451.13;;;8.76;100.00
33075;BME280;19433;51.292;6.868;2023-04-07T10:24:04;100454.34;;;8.79;100.00
33075;BME280;19433;51.292;6.868;2023-04-07T10:26:36;100457.06;;;8.94;100.00
33075;BME280;19433;51.292;6.868;2023-04-07T10:29:09;100457.16;;;8.86;100.00
33075;BME280;19433;51.292;6.868;2023-04-07T10:31:36;100460.91;;;8.78;100.00
33075;BME280;19433;51.292;6.868;2023-04-07T10:34:03;100470.50;;;8.82;100.00
33075;BME280;19433;51.292;6.868;2023-04-07T10:36:30;100470.50;;;8.82;100.00
33075;BME280;19433;51.292;6.868;2023-04-07T10:41:39;100474.69;;;8.78;100.00
33075;BME280;19433;51.292;6.868;2023-04-07T10:44:06;100470.94;;;8.86;100.00
33075;BME280;19433;51.292;6.868;2023-04-07T10:49:10;100474.16;;;8.90;100.00
33075;BME280;19433;51.292;6.868;2023-04-07T10:51:35;100473.06;;;8.84;100.00
33075;BME280;19433;51.292;6.868;2023-04-07T10:54:15;100483.28;;;8.90;100.00
33075;BME280;19433;51.292;6.868;2023-04-07T10:59:35;100477.88;;;8.97;100.00
33075;BME280;19433;51.292;6.868;2023-04-07T11:04:40;100476.31;;;9.09;100.00
33075;BME280;19433;51.292;6.868;2023-04-07T11:07:07;100486.28;;;9.10;100.00
33075;BME280;19433;51.292;6.868;2023-04-07T11:09:32;100485.09;;;9.19;100.00
33075;BME280;19433;51.292;6.868;2023-04-07T11:11:58;100482.59;;;9.03;100.00
33075;BME280;19433;51.292;6.868;2023-04-07T11:14:24;100486.47;;;9.08;100.00
33075;BME280;19433;51.292;6.868;2023-04-07T11:16:51;100481.16;;;9.07;100.00
33075;BME280;19433;51.292;6.868;2023-04-07T11:19:16;100494.41;;;8.97;100.00
33075;BME280;19433;51.292;6.868;2023-04-07T11:21:42;100493.56;;;8.96;100.00
33075;BME280;19433;51.292;6.868;2023-04-07T11:24:07;100491.28;;;9.00;100.00
33075;BME280;19433;51.292;6.868;2023-04-07T11:26:40;100499.81;;;8.90;100.00
33075;BME280;19433;51.292;6.868;2023-04-07T11:29:05;100494.03;;;9.00;100.00
33075;BME280;19433;51.292;6.868;2023-04-07T11:31:32;100493.56;;;8.96;100.00
33075;BME280;19433;51.292;6.868;2023-04-07T11:34:00;100494.66;;;9.02;100.00
33075;BME280;19433;51.292;6.868;2023-04-07T11:36:39;100498.38;;;9.09;100.00
33075;BME280;19433;51.292;6.868;2023-04-07T11:39:17;100494.72;;;9.23;100.00
33075;BME280;19433;51.292;6.868;2023-04-07T11:41:47;100508.91;;;9.41;100.00
33075;BME280;19433;51.292;6.868;2023-04-07T11:44:13;100505.84;;;9.79;100.00
33075;BME280;19433;51.292;6.868;2023-04-07T11:46:58;100500.72;;;10.18;100.00
33075;BME280;19433;51.292;6.868;2023-04-07T11:49:25;100506.22;;;10.46;100.00
33075;BME280;19433;51.292;6.868;2023-04-07T11:52:02;100506.75;;;11.11;100.00
33075;BME280;19433;51.292;6.868;2023-04-07T11:54:57;100515.78;;;11.52;100.00
33075;BME280;19433;51.292;6.868;2023-04-07T11:57:25;100507.16;;;11.88;100.00
33075;BME280;19433;51.292;6.868;2023-04-07T12:00:04;100524.34;;;11.71;100.00
33075;BME280;19433;51.292;6.868;2023-04-07T12:02:31;100522.88;;;11.75;100.00
33075;BME280;19433;51.292;6.868;2023-04-07T12:04:57;100528.34;;;11.55;100.00
33075;BME280;19433;51.292;6.868;2023-04-07T12:07:23;100524.91;;;11.40;100.00
33075;BME280;19433;51.292;6.868;2023-04-07T12:09:48;100526.78;;;11.26;100.00
33075;BME280;19433;51.292;6.868;2023-04-07T12:12:13;100532.69;;;11.84;100.00
33075;BME280;19433;51.292;6.868;2023-04-07T12:14:38;100527.78;;;11.92;100.00
33075;BME280;19433;51.292;6.868;2023-04-07T12:17:04;100530.34;;;11.94;100.00
33075;BME280;19433;51.292;6.868;2023-04-07T12:19:30;100529.50;;;11.87;100.00
33075;BME280;19433;51.292;6.868;2023-04-07T12:21:59;100536.09;;;11.92;100.00
33075;BME280;19433;51.292;6.868;2023-04-07T12:24:25;100540.13;;;11.77;100.00
33075;BME280;19433;51.292;6.868;2023-04-07T12:26:51;100539.38;;;11.35;100.00
33075;BME280;19433;51.292;6.868;2023-04-07T12:29:16;100550.78;;;11.12;100.00
33075;BME280;19433;51.292;6.868;2023-04-07T12:31:43;100548.78;;;10.58;100.00
33075;BME280;19433;51.292;6.868;2023-04-07T12:34:09;100549.16;;;10.21;100.00
33075;BME280;19433;51.292;6.868;2023-04-07T12:36:34;100550.00;;;10.21;100.00
33075;BME280;19433;51.292;6.868;2023-04-07T12:39:00;100545.63;;;10.12;100.00
33075;BME280;19433;51.292;6.868;2023-04-07T12:41:25;100549.84;;;10.08;100.00
33075;BME280;19433;51.292;6.868;2023-04-07T12:43:51;100556.84;;;10.04;100.00
33075;BME280;19433;51.292;6.868;2023-04-07T12:46:18;100552.75;;;10.00;100.00
33075;BME280;19433;51.292;6.868;2023-04-07T12:48:43;100556.88;;;10.11;100.00
33075;BME280;19433;51.292;6.868;2023-04-07T12:51:08;100564.97;;;10.34;100.00
33075;BME280;19433;51.292;6.868;2023-04-07T12:53:34;100556.09;;;10.38;100.00
33075;BME280;19433;51.292;6.868;2023-04-07T12:56:00;100562.66;;;10.37;100.00
33075;BME280;19433;51.292;6.868;2023-04-07T12:58:25;100565.81;;;10.34;100.00
33075;BME280;19433;51.292;6.868;2023-04-07T13:00:51;100565.16;;;10.11;100.00
33075;BME280;19433;51.292;6.868;2023-04-07T13:03:17;100574.06;;;9.85;100.00
33075;BME280;19433;51.292;6.868;2023-04-07T13:05:43;100560.72;;;9.67;100.00
33075;BME280;19433;51.292;6.868;2023-04-07T13:08:08;100571.28;;;9.42;100.00